Time,TemperatureF,DewpointF,PressureIn,WindDirection,WindDirectionDegrees,WindSpeedMPH,WindSpeedGustMPH,Humidity,HourlyPrecipIn,Conditions,Clouds,dailyrainin,SoftwareType,DateUTC
2013-04-22 00:00:00,79.0,77.0,30.05,East,100,10.0,10.0,94,-99.99,,,-99.99,,2013-04-22 04:00:00,
2013-04-22 00:23:00,79.0,77.0,30.05,East,100,10.0,10.0,94,-99.99,,,-99.99,,2013-04-22 04:23:00,
2013-04-22 00:32:00,79.0,77.0,30.05,East,100,10.0,10.0,94,-99.99,,,-99.99,,2013-04-22 04:32:00,
2013-04-22 00:43:00,79.0,77.0,30.05,East,100,10.0,10.0,94,-99.99,,,-99.99,,2013-04-22 04:43:00,
2013-04-22 00:52:00,79.0,77.0,30.05,East,100,10.0,10.0,94,-99.99,,,-99.99,,2013-04-22 04:52:00,
2013-04-22 01:00:00,79.0,77.0,30.07,ESE,110,9.0,10.0,92,-99.99,,,-99.99,,2013-04-22 05:00:00,
2013-04-22 01:22:00,79.0,77.0,30.07,ESE,110,9.0,10.0,92,-99.99,,,-99.99,,2013-04-22 05:22:00,
2013-04-22 01:32:00,79.0,77.0,30.07,ESE,110,9.0,10.0,92,-99.99,,,-99.99,,2013-04-22 05:32:00,
2013-04-22 01:42:00,79.0,77.0,30.07,ESE,110,9.0,10.0,92,-99.99,,,-99.99,,2013-04-22 05:42:00,
2013-04-22 01:52:00,79.0,77.0,30.07,ESE,110,9.0,10.0,92,-99.99,,,-99.99,,2013-04-22 05:52:00,
2013-04-22 02:00:00,73.0,68.0,30.05,North,0,0.0,1.0,82,-99.99,,,-99.99,,2013-04-22 06:00:00,
2013-04-22 02:21:00,73.0,68.0,30.05,North,0,0.0,1.0,82,-99.99,,,-99.99,,2013-04-22 06:21:00,
2013-04-22 02:32:00,73.0,68.0,30.05,North,0,0.0,1.0,82,-99.99,,,-99.99,,2013-04-22 06:32:00,
2013-04-22 02:41:00,73.0,68.0,30.05,North,0,0.0,1.0,82,-99.99,,,-99.99,,2013-04-22 06:41:00,
2013-04-22 02:51:00,73.0,68.0,30.05,North,0,0.0,1.0,82,-99.99,,,-99.99,,2013-04-22 06:51:00,
2013-04-22 03:21:00,75.0,74.0,30.01,NE,40,8.0,9.0,97,-99.99,,,-99.99,,2013-04-22 07:21:00,
2013-04-22 03:31:00,75.0,74.0,30.01,NE,40,8.0,9.0,97,-99.99,,,-99.99,,2013-04-22 07:31:00,
2013-04-22 04:00:00,73.0,73.0,30.00,NE,50,9.0,10.0,98,-99.99,,,-99.99,,2013-04-22 08:00:00,
2013-04-22 04:21:00,73.0,73.0,30.00,NE,50,9.0,10.0,98,-99.99,,,-99.99,,2013-04-22 08:21:00,
2013-04-22 04:31:00,73.0,73.0,30.00,NE,50,9.0,10.0,98,-99.99,,,-99.99,,2013-04-22 08:31:00,
2013-04-22 04:41:00,73.0,73.0,30.00,NE,50,9.0,10.0,98,-99.99,,,-99.99,,2013-04-22 08:41:00,
2013-04-22 04:52:00,73.0,73.0,30.00,NE,50,9.0,10.0,98,-99.99,,,-99.99,,2013-04-22 08:52:00,
2013-04-22 05:00:00,74.0,73.0,30.01,ENE,70,2.0,3.0,98,-99.99,,,-99.99,,2013-04-22 09:00:00,
2013-04-22 05:21:00,74.0,73.0,30.01,ENE,70,2.0,3.0,98,-99.99,,,-99.99,,2013-04-22 09:21:00,
2013-04-22 05:32:00,74.0,73.0,30.01,ENE,70,2.0,3.0,98,-99.99,,,-99.99,,2013-04-22 09:32:00,
2013-04-22 05:42:00,74.0,73.0,30.01,ENE,70,2.0,3.0,98,-99.99,,,-99.99,,2013-04-22 09:42:00,
2013-04-22 05:52:00,74.0,73.0,30.01,ENE,70,2.0,3.0,98,-99.99,,,-99.99,,2013-04-22 09:52:00,
2013-04-22 06:00:00,75.0,75.0,29.99,NNE,20,3.0,3.0,98,-99.99,,,-99.99,,2013-04-22 10:00:00,
2013-04-22 06:52:00,75.0,75.0,29.99,NNE,20,3.0,3.0,98,-99.99,,,-99.99,,2013-04-22 10:52:00,
2013-04-22 07:00:00,76.0,75.0,29.98,ENE,70,2.0,3.0,98,-99.99,,,-99.99,,2013-04-22 11:00:00,
2013-04-22 07:22:00,76.0,75.0,29.98,ENE,70,2.0,3.0,98,-99.99,,,-99.99,,2013-04-22 11:22:00,
2013-04-22 07:32:00,76.0,75.0,29.98,ENE,70,2.0,3.0,98,-99.99,,,-99.99,,2013-04-22 11:32:00,
2013-04-22 07:42:00,76.0,75.0,29.98,ENE,70,2.0,3.0,98,-99.99,,,-99.99,,2013-04-22 11:42:00,
2013-04-22 07:52:00,76.0,75.0,29.98,ENE,70,2.0,3.0,98,-99.99,,,-99.99,,2013-04-22 11:52:00,
2013-04-22 08:00:00,77.0,74.0,30.01,ENE,60,7.0,8.0,90,-99.99,,,-99.99,,2013-04-22 12:00:00,
2013-04-22 08:21:00,77.0,74.0,30.01,ENE,60,7.0,8.0,90,-99.99,,,-99.99,,2013-04-22 12:21:00,
2013-04-22 08:31:00,77.0,74.0,30.01,ENE,60,7.0,8.0,90,-99.99,,,-99.99,,2013-04-22 12:31:00,
2013-04-22 08:42:00,77.0,74.0,30.01,ENE,60,7.0,8.0,90,-99.99,,,-99.99,,2013-04-22 12:42:00,
2013-04-22 08:52:00,77.0,74.0,30.01,ENE,60,7.0,8.0,90,-99.99,,,-99.99,,2013-04-22 12:52:00,
2013-04-22 09:00:00,76.0,74.0,30.03,SE,130,10.0,11.0,93,-99.99,,,-99.99,,2013-04-22 13:00:00,
2013-04-22 09:22:00,76.0,74.0,30.03,SE,130,10.0,11.0,93,-99.99,,,-99.99,,2013-04-22 13:22:00,
2013-04-22 09:31:00,76.0,74.0,30.03,SE,130,10.0,11.0,93,-99.99,,,-99.99,,2013-04-22 13:31:00,
2013-04-22 09:41:00,76.0,74.0,30.03,SE,130,10.0,11.0,93,-99.99,,,-99.99,,2013-04-22 13:41:00,
2013-04-22 09:52:00,76.0,74.0,30.03,SE,130,10.0,11.0,93,-99.99,,,-99.99,,2013-04-22 13:52:00,
2013-04-22 10:00:00,76.0,74.0,30.04,ESE,110,9.0,10.0,93,-99.99,,,-99.99,,2013-04-22 14:00:00,
2013-04-22 10:21:00,76.0,74.0,30.04,ESE,110,9.0,10.0,93,-99.99,,,-99.99,,2013-04-22 14:21:00,
2013-04-22 10:32:00,76.0,74.0,30.04,ESE,110,9.0,10.0,93,-99.99,,,-99.99,,2013-04-22 14:32:00,
2013-04-22 10:42:00,76.0,74.0,30.04,ESE,110,9.0,10.0,93,-99.99,,,-99.99,,2013-04-22 14:42:00,
2013-04-22 10:51:00,76.0,74.0,30.04,ESE,110,9.0,10.0,93,-99.99,,,-99.99,,2013-04-22 14:51:00,
2013-04-22 11:00:00,76.0,76.0,30.04,ESE,110,15.0,17.0,97,-99.99,,,-99.99,,2013-04-22 15:00:00,
2013-04-22 11:22:00,76.0,76.0,30.04,ESE,110,15.0,17.0,97,-99.99,,,-99.99,,2013-04-22 15:22:00,
2013-04-22 11:33:00,76.0,76.0,30.04,ESE,110,15.0,17.0,97,-99.99,,,-99.99,,2013-04-22 15:33:00,
2013-04-22 11:42:00,76.0,76.0,30.04,ESE,110,15.0,17.0,97,-99.99,,,-99.99,,2013-04-22 15:42:00,
2013-04-22 11:53:00,76.0,76.0,30.04,ESE,110,15.0,17.0,97,-99.99,,,-99.99,,2013-04-22 15:53:00,
2013-04-22 12:00:00,76.0,76.0,30.05,East,90,13.0,14.0,98,-99.99,,,-99.99,,2013-04-22 16:00:00,
2013-04-22 12:22:00,76.0,76.0,30.05,East,90,13.0,14.0,98,-99.99,,,-99.99,,2013-04-22 16:22:00,
2013-04-22 12:32:00,76.0,76.0,30.05,East,90,13.0,14.0,98,-99.99,,,-99.99,,2013-04-22 16:32:00,
2013-04-22 12:41:00,76.0,76.0,30.05,East,90,13.0,14.0,98,-99.99,,,-99.99,,2013-04-22 16:41:00,
2013-04-22 12:52:00,76.0,76.0,30.05,East,90,13.0,14.0,98,-99.99,,,-99.99,,2013-04-22 16:52:00,
2013-04-22 13:00:00,79.0,78.0,30.03,SE,130,10.0,10.0,98,-99.99,,,-99.99,,2013-04-22 17:00:00,
2013-04-22 13:21:00,79.0,78.0,30.03,SE,130,10.0,10.0,98,-99.99,,,-99.99,,2013-04-22 17:21:00,
2013-04-22 13:31:00,79.0,78.0,30.03,SE,130,10.0,10.0,98,-99.99,,,-99.99,,2013-04-22 17:31:00,
2013-04-22 14:21:00,80.0,79.0,30.01,East,100,6.0,7.0,97,-99.99,,,-99.99,,2013-04-22 18:21:00,
2013-04-22 15:21:00,80.0,79.0,29.99,SSE,150,5.0,6.0,95,-99.99,,,-99.99,,2013-04-22 19:21:00,
2013-04-22 15:32:00,80.0,79.0,29.99,SSE,150,5.0,6.0,95,-99.99,,,-99.99,,2013-04-22 19:32:00,
2013-04-22 16:21:00,81.0,79.0,29.96,SE,140,5.0,6.0,93,-99.99,,,-99.99,,2013-04-22 20:21:00,
2013-04-22 16:31:00,81.0,79.0,29.96,SE,140,5.0,6.0,93,-99.99,,,-99.99,,2013-04-22 20:31:00,
2013-04-22 17:21:00,83.0,79.0,29.95,SSE,160,5.0,5.0,87,-99.99,,,-99.99,,2013-04-22 21:21:00,
2013-04-22 18:22:00,83.0,77.0,29.96,North,0,0.0,0.0,82,-99.99,,,-99.99,,2013-04-22 22:22:00,
2013-04-22 18:32:00,83.0,77.0,29.96,North,0,0.0,0.0,82,-99.99,,,-99.99,,2013-04-22 22:32:00,
2013-04-22 19:00:00,81.0,74.0,29.97,North,0,0.0,2.0,78,-99.99,,,-99.99,,2013-04-22 23:00:00,
2013-04-22 19:21:00,81.0,74.0,29.97,North,0,0.0,2.0,78,-99.99,,,-99.99,,2013-04-22 23:21:00,
2013-04-22 19:32:00,81.0,74.0,29.97,North,0,0.0,2.0,78,-99.99,,,-99.99,,2013-04-22 23:32:00,
2013-04-22 19:42:00,81.0,74.0,29.97,North,0,0.0,2.0,78,-99.99,,,-99.99,,2013-04-22 23:42:00,
2013-04-22 19:52:00,81.0,74.0,29.97,North,0,0.0,2.0,78,-99.99,,,-99.99,,2013-04-22 23:52:00,
2013-04-22 20:00:00,78.0,74.0,29.98,WNW,290,1.0,2.0,87,-99.99,,,-99.99,,2013-04-23 00:00:00,
2013-04-22 20:21:00,78.0,74.0,29.98,WNW,290,1.0,2.0,87,-99.99,,,-99.99,,2013-04-23 00:21:00,
2013-04-22 20:31:00,78.0,74.0,29.98,WNW,290,1.0,2.0,87,-99.99,,,-99.99,,2013-04-23 00:31:00,
2013-04-22 20:41:00,78.0,74.0,29.98,WNW,290,1.0,2.0,87,-99.99,,,-99.99,,2013-04-23 00:41:00,
2013-04-22 20:51:00,78.0,74.0,29.98,WNW,290,1.0,2.0,87,-99.99,,,-99.99,,2013-04-23 00:51:00,
2013-04-22 21:00:00,79.0,74.0,30.00,North,350,7.0,7.0,86,-99.99,,,-99.99,,2013-04-23 01:00:00,
2013-04-22 21:21:00,79.0,74.0,30.00,North,350,7.0,7.0,86,-99.99,,,-99.99,,2013-04-23 01:21:00,
2013-04-22 21:31:00,79.0,74.0,30.00,North,350,7.0,7.0,86,-99.99,,,-99.99,,2013-04-23 01:31:00,
2013-04-22 21:41:00,79.0,74.0,30.00,North,350,7.0,7.0,86,-99.99,,,-99.99,,2013-04-23 01:41:00,
2013-04-22 21:52:00,79.0,74.0,30.00,North,350,7.0,7.0,86,-99.99,,,-99.99,,2013-04-23 01:52:00,
2013-04-22 22:00:00,79.0,74.0,30.01,NNE,20,10.0,11.0,85,-99.99,,,-99.99,,2013-04-23 02:00:00,
2013-04-22 22:21:00,79.0,74.0,30.01,NNE,20,10.0,11.0,85,-99.99,,,-99.99,,2013-04-23 02:21:00,
2013-04-22 22:32:00,79.0,74.0,30.01,NNE,20,10.0,11.0,85,-99.99,,,-99.99,,2013-04-23 02:32:00,
2013-04-22 22:41:00,79.0,74.0,30.01,NNE,20,10.0,11.0,85,-99.99,,,-99.99,,2013-04-23 02:41:00,
2013-04-22 22:52:00,79.0,74.0,30.01,NNE,20,10.0,11.0,85,-99.99,,,-99.99,,2013-04-23 02:52:00,
2013-04-22 23:00:00,76.0,76.0,30.01,NE,40,23.0,24.0,98,-99.99,,,-99.99,,2013-04-23 03:00:00,
2013-04-22 23:21:00,76.0,76.0,30.01,NE,40,23.0,24.0,98,-99.99,,,-99.99,,2013-04-23 03:21:00,
2013-04-22 23:32:00,76.0,76.0,30.01,NE,40,23.0,24.0,98,-99.99,,,-99.99,,2013-04-23 03:32:00,
2013-04-22 23:43:00,76.0,76.0,30.01,NE,40,23.0,24.0,98,-99.99,,,-99.99,,2013-04-23 03:43:00,
2013-04-22 23:52:00,76.0,76.0,30.01,NE,40,23.0,24.0,98,-99.99,,,-99.99,,2013-04-23 03:52:00,